Time;durP1;ratioP1;P1;durP2;ratioP2;P2;SDS_P1;SDS_P2;PMS_P1;PMS_P2;Temp;Humidity;BMP_temperature;BMP_pressure;BME280_temperature;BME280_humidity;BME280_pressure;Samples;Min_cycle;Max_cycle;Signal;HPM_P1;HPM_P2
2021/07/11 00:00:44;;;;;;;2.70;2.50;;;;;;;17.52;100.00;98179.59;5095908;28;20217;-62
2021/07/11 00:03:10;;;;;;;3.00;2.70;;;;;;;17.50;100.00;98178.06;5095461;28;20214;-62
2021/07/11 00:05:37;;;;;;;2.83;2.63;;;;;;;17.43;100.00;98175.13;5095508;28;20226;-62
2021/07/11 00:08:04;;;;;;;2.80;2.60;;;;;;;17.37;100.00;98170.34;5095535;28;20207;-63
2021/07/11 00:10:32;;;;;;;3.33;2.87;;;;;;;17.34;100.00;98170.63;5095614;28;20293;-62
2021/07/11 00:12:58;;;;;;;3.67;2.83;;;;;;;17.31;100.00;98167.41;5094961;28;20701;-62
2021/07/11 00:15:26;;;;;;;3.93;2.90;;;;;;;17.31;100.00;98172.75;5095362;28;20582;-63
2021/07/11 00:17:54;;;;;;;3.20;2.90;;;;;;;17.28;100.00;98171.22;5095515;28;20578;-62
2021/07/11 00:20:22;;;;;;;3.13;2.83;;;;;;;17.23;100.00;98172.63;5095263;28;20202;-62
2021/07/11 00:22:48;;;;;;;3.13;2.83;;;;;;;17.14;100.00;98169.00;5079473;28;20202;-62
2021/07/11 00:25:15;;;;;;;2.83;2.60;;;;;;;17.05;100.00;98156.53;5074578;28;20211;-63
2021/07/11 00:27:44;;;;;;;2.63;2.43;;;;;;;16.99;100.00;98165.13;5074809;28;20222;-62
2021/07/11 00:30:12;;;;;;;5.20;2.50;;;;;;;16.96;100.00;98162.72;5074829;28;20584;-62
2021/07/11 00:32:40;;;;;;;2.60;2.40;;;;;;;16.91;100.00;98162.34;5074146;28;20215;-62
2021/07/11 00:35:07;;;;;;;2.57;2.37;;;;;;;16.83;100.00;98154.19;5074722;28;20215;-62
2021/07/11 00:37:34;;;;;;;3.13;2.10;;;;;;;16.81;100.00;98161.50;5074649;28;20751;-62
2021/07/11 00:40:00;;;;;;;3.20;2.30;;;;;;;16.75;100.00;98158.56;5074675;28;20211;-62
2021/07/11 00:42:27;;;;;;;2.80;2.50;;;;;;;16.74;100.00;98157.75;5074465;28;20222;-62
2021/07/11 00:44:55;;;;;;;2.60;2.40;;;;;;;16.73;100.00;98161.41;5074447;28;20215;-62
2021/07/11 00:47:21;;;;;;;3.70;2.60;;;;;;;16.70;100.00;98159.00;5074542;28;20215;-62
2021/07/11 00:49:48;;;;;;;3.27;2.47;;;;;;;16.68;100.00;98165.47;5072761;28;20217;-62
2021/07/11 00:52:15;;;;;;;3.20;2.73;;;;;;;16.65;100.00;98161.25;5074399;28;20227;-62
2021/07/11 00:54:42;;;;;;;3.43;2.20;;;;;;;16.65;100.00;98163.91;5074197;28;20215;-62
2021/07/11 00:57:09;;;;;;;2.87;2.53;;;;;;;16.59;100.00;98166.34;5074304;28;20235;-62
2021/07/11 00:59:38;;;;;;;2.50;2.30;;;;;;;16.60;100.00;98168.88;5073937;28;20211;-63
2021/07/11 01:02:11;;;;;;;3.10;2.80;;;;;;;16.57;100.00;98174.47;5074288;28;20208;-63
2021/07/11 01:04:43;;;;;;;2.63;2.43;;;;;;;16.56;100.00;98172.78;5074275;28;20223;-63
2021/07/11 01:07:11;;;;;;;3.13;2.40;;;;;;;16.55;100.00;98171.13;5074001;28;20207;-62
2021/07/11 01:09:41;;;;;;;2.77;2.53;;;;;;;16.58;100.00;98168.16;5074006;28;20207;-63
2021/07/11 01:12:17;;;;;;;3.67;2.70;;;;;;;16.59;100.00;98169.81;5073945;28;20207;-63
2021/07/11 01:14:47;;;;;;;3.67;2.57;;;;;;;16.59;100.00;98167.16;5071997;28;20210;-62
2021/07/11 01:17:17;;;;;;;3.20;2.40;;;;;;;16.55;100.00;98173.78;5074068;28;20235;-63
2021/07/11 01:20:04;;;;;;;2.50;2.30;;;;;;;16.55;100.00;98176.44;5073880;28;20214;-63
2021/07/11 01:22:36;;;;;;;2.53;2.33;;;;;;;16.57;100.00;98174.47;5085219;28;20206;-63
2021/07/11 01:25:07;;;;;;;2.80;2.57;;;;;;;16.57;100.00;98184.31;5093753;28;20207;-62
2021/07/11 01:27:36;;;;;;;2.67;2.10;;;;;;;16.58;100.00;98186.00;5094125;28;20737;-63
2021/07/11 01:30:06;;;;;;;3.40;2.17;;;;;;;16.59;100.00;98188.50;5094084;28;20207;-63
2021/07/11 01:32:34;;;;;;;2.67;2.23;;;;;;;16.66;100.00;98186.97;5093953;28;20229;-63
2021/07/11 01:35:04;;;;;;;2.63;2.40;;;;;;;16.71;100.00;98187.38;5093912;28;20211;-63
2021/07/11 01:37:32;;;;;;;2.60;2.40;;;;;;;16.77;100.00;98181.47;5093600;28;20253;-63
2021/07/11 01:39:59;;;;;;;2.67;2.47;;;;;;;16.80;100.00;98181.19;5092898;28;20211;-63
2021/07/11 01:42:26;;;;;;;2.93;2.30;;;;;;;16.80;100.00;98178.53;5093084;28;20210;-63
2021/07/11 01:44:54;;;;;;;2.83;2.63;;;;;;;16.81;100.00;98177.53;5093861;28;20214;-62
2021/07/11 01:47:20;;;;;;;2.37;2.17;;;;;;;16.81;100.00;98172.19;5093682;28;20210;-62
2021/07/11 01:49:47;;;;;;;2.57;2.37;;;;;;;16.81;100.00;98182.88;5093702;28;20636;-63
2021/07/11 01:52:14;;;;;;;2.50;2.30;;;;;;;16.82;100.00;98179.22;5093368;28;20215;-63
2021/07/11 01:54:41;;;;;;;5.27;2.43;;;;;;;16.78;100.00;98175.16;5093194;28;20218;-62
2021/07/11 01:57:08;;;;;;;3.80;2.10;;;;;;;16.75;100.00;98174.59;5093425;28;20241;-63
2021/07/11 01:59:34;;;;;;;2.23;2.00;;;;;;;16.65;100.00;98177.25;5093556;28;20583;-63
2021/07/11 02:02:02;;;;;;;2.27;2.00;;;;;;;16.60;100.00;98184.88;5093552;28;20211;-63
2021/07/11 02:04:29;;;;;;;2.30;2.10;;;;;;;16.58;100.00;98184.16;5093452;28;20207;-63
2021/07/11 02:06:55;;;;;;;2.40;2.20;;;;;;;16.63;100.00;98189.91;5091758;28;20210;-62
2021/07/11 02:09:22;;;;;;;2.60;2.00;;;;;;;16.59;100.00;98183.16;5093286;28;20207;-62
2021/07/11 02:11:48;;;;;;;2.00;1.90;;;;;;;16.62;100.00;98188.25;5093194;28;20218;-62
2021/07/11 02:14:17;;;;;;;2.90;2.30;;;;;;;16.61;100.00;98186.56;5092886;28;20670;-63
2021/07/11 02:16:59;;;;;;;2.40;2.20;;;;;;;16.59;100.00;98193.03;5092865;28;20231;-62
2021/07/11 02:19:28;;;;;;;2.63;2.07;;;;;;;16.60;100.00;98182.22;5092869;28;20214;-63
2021/07/11 02:21:55;;;;;;;2.27;2.07;;;;;;;16.60;100.00;98181.34;5086295;28;20207;-62
2021/07/11 02:24:23;;;;;;;2.47;2.20;;;;;;;16.59;100.00;98187.69;5072958;28;20562;-63
2021/07/11 02:26:51;;;;;;;3.60;2.20;;;;;;;16.56;100.00;98178.13;5072917;28;20212;-61
2021/07/11 02:29:18;;;;;;;2.30;2.10;;;;;;;16.56;100.00;98178.13;5072555;28;20222;-62
2021/07/11 02:31:46;;;;;;;2.70;2.07;;;;;;;16.53;100.00;98167.72;5072968;28;20569;-63
2021/07/11 02:34:14;;;;;;;3.60;2.20;;;;;;;16.51;100.00;98176.88;5071154;28;20239;-62
2021/07/11 02:36:48;;;;;;;3.80;1.90;;;;;;;16.48;100.00;98178.00;5074095;28;20238;-63
2021/07/11 02:39:17;;;;;;;1.93;1.83;;;;;;;16.45;100.00;98186.28;5076995;28;20211;-62
2021/07/11 02:41:50;;;;;;;2.60;2.07;;;;;;;16.48;100.00;98182.50;5076821;28;20590;-63
2021/07/11 02:44:20;;;;;;;3.17;2.17;;;;;;;16.50;100.00;98183.19;5076939;28;20210;-63
2021/07/11 02:46:49;;;;;;;2.60;2.30;;;;;;;16.47;100.00;98178.97;5076504;28;20207;-63
2021/07/11 02:49:19;;;;;;;2.80;2.13;;;;;;;16.50;100.00;98184.03;5076771;28;20210;-63
2021/07/11 02:51:51;;;;;;;2.63;2.20;;;;;;;16.46;100.00;98187.13;5076705;28;20230;-63
2021/07/11 02:54:22;;;;;;;2.33;2.13;;;;;;;16.44;100.00;98189.06;5076469;28;20218;-63
2021/07/11 02:56:54;;;;;;;2.33;2.13;;;;;;;16.42;100.00;98186.56;5076227;28;20258;-62
2021/07/11 02:59:22;;;;;;;2.50;2.30;;;;;;;16.42;100.00;98186.56;5074894;28;20203;-63
2021/07/11 03:01:50;;;;;;;2.20;2.00;;;;;;;16.38;100.00;98179.81;5076700;28;20211;-63
2021/07/11 03:04:20;;;;;;;2.97;2.40;;;;;;;16.37;100.00;98177.25;5076451;28;20207;-63
2021/07/11 03:06:47;;;;;;;3.40;1.97;;;;;;;16.34;100.00;98175.72;5076344;28;20211;-63
2021/07/11 03:09:14;;;;;;;2.13;1.93;;;;;;;16.32;100.00;98183.03;5076332;28;20211;-63
2021/07/11 03:11:43;;;;;;;2.37;2.17;;;;;;;16.25;100.00;98176.56;5076272;28;20211;-63
2021/07/11 03:14:11;;;;;;;2.50;2.30;;;;;;;16.23;100.00;98175.03;5076193;28;20566;-63
2021/07/11 03:16:39;;;;;;;2.37;2.17;;;;;;;16.22;100.00;98184.84;5076210;28;20232;-63
2021/07/11 03:19:06;;;;;;;2.80;2.50;;;;;;;16.19;100.00;98179.78;5075957;28;20216;-63
2021/07/11 03:21:32;;;;;;;2.87;1.90;;;;;;;16.15;100.00;98178.38;5079564;28;20202;-63
2021/07/11 03:24:02;;;;;;;2.60;2.40;;;;;;;16.13;100.00;98192.00;5095524;28;20210;-63
2021/07/11 03:26:31;;;;;;;2.70;2.50;;;;;;;16.10;100.00;98185.94;5096091;28;20202;-63
2021/07/11 03:28:58;;;;;;;3.67;2.60;;;;;;;16.07;100.00;98181.88;5095986;28;20218;-63
2021/07/11 03:31:25;;;;;;;3.57;2.57;;;;;;;16.03;100.00;98197.31;5095980;28;20681;-63
2021/07/11 03:33:55;;;;;;;2.63;2.43;;;;;;;16.02;100.00;98191.13;5096146;28;20271;-63
2021/07/11 03:36:23;;;;;;;2.40;2.03;;;;;;;16.01;100.00;98191.25;5095714;28;20669;-63
2021/07/11 03:38:54;;;;;;;2.77;2.40;;;;;;;16.01;100.00;98193.09;5096537;28;20239;-63
2021/07/11 03:41:26;;;;;;;4.20;2.77;;;;;;;16.02;100.00;98188.47;5095814;28;20207;-63
2021/07/11 03:43:55;;;;;;;3.07;2.53;;;;;;;16.02;100.00;98191.13;5096023;28;20568;-63
2021/07/11 03:46:25;;;;;;;2.70;2.50;;;;;;;16.01;100.00;98196.59;5095556;28;20214;-63
2021/07/11 03:48:55;;;;;;;2.40;2.20;;;;;;;16.04;100.00;98196.34;5095088;28;20203;-63
2021/07/11 03:51:24;;;;;;;2.70;2.50;;;;;;;16.07;100.00;98195.22;5094186;28;20206;-63
2021/07/11 03:53:54;;;;;;;4.63;2.40;;;;;;;16.08;100.00;98196.91;5095553;28;20670;-63
2021/07/11 03:56:26;;;;;;;3.93;2.63;;;;;;;16.07;100.00;98201.38;5095553;28;20214;-63
2021/07/11 03:58:55;;;;;;;3.17;2.60;;;;;;;16.13;100.00;98200.00;5095624;28;20230;-63
2021/07/11 04:01:25;;;;;;;4.30;2.50;;;;;;;16.12;100.00;98199.16;5095738;28;20214;-63
2021/07/11 04:03:54;;;;;;;3.83;2.50;;;;;;;16.13;100.00;98201.69;5095575;28;20268;-63
2021/07/11 04:06:22;;;;;;;2.57;2.37;;;;;;;16.14;100.00;98208.69;5095232;28;20214;-63
2021/07/11 04:08:50;;;;;;;2.50;2.23;;;;;;;16.15;100.00;98205.03;5095536;28;20590;-63
2021/07/11 04:11:17;;;;;;;3.60;2.60;;;;;;;16.17;100.00;98207.56;5095158;28;20611;-63
2021/07/11 04:13:45;;;;;;;3.43;2.30;;;;;;;16.20;100.00;98213.47;5095415;28;20211;-63
2021/07/11 04:16:12;;;;;;;2.80;2.50;;;;;;;16.21;100.00;98204.50;5093631;28;20219;-63
2021/07/11 04:18:43;;;;;;;3.10;2.53;;;;;;;16.22;100.00;98211.50;5095277;28;20235;-63
2021/07/11 04:21:12;;;;;;;4.67;2.60;;;;;;;16.25;100.00;98211.25;5094752;28;20242;-63
2021/07/11 04:23:40;;;;;;;2.93;2.60;;;;;;;16.23;100.00;98215.88;5074804;28;20204;-63
2021/07/11 04:26:07;;;;;;;4.47;2.40;;;;;;;16.25;100.00;98221.91;5075061;28;20211;-63
2021/07/11 04:28:36;;;;;;;2.17;2.03;;;;;;;16.28;100.00;98221.63;5074962;28;20212;-63
2021/07/11 04:31:05;;;;;;;4.13;2.10;;;;;;;16.35;100.00;98217.41;5074932;28;20215;-63
2021/07/11 04:33:32;;;;;;;2.50;2.10;;;;;;;16.37;100.00;98218.13;5074600;28;20211;-62
2021/07/11 04:36:00;;;;;;;3.30;2.53;;;;;;;16.44;100.00;98221.94;5074437;28;20211;-63
2021/07/11 04:38:27;;;;;;;2.33;2.13;;;;;;;16.51;100.00;98219.56;5074432;28;20251;-63
2021/07/11 04:40:54;;;;;;;3.03;2.23;;;;;;;16.54;100.00;98212.13;5074626;28;20202;-63
2021/07/11 04:43:20;;;;;;;3.43;2.17;;;;;;;16.62;100.00;98214.94;5072996;28;20226;-63
2021/07/11 04:45:47;;;;;;;2.20;2.00;;;;;;;16.67;100.00;98215.34;5074763;28;20252;-63
2021/07/11 04:48:16;;;;;;;2.37;2.07;;;;;;;16.73;100.00;98216.59;5074326;28;20258;-63
2021/07/11 04:50:43;;;;;;;2.63;2.40;;;;;;;16.78;100.00;98206.34;5074722;28;20219;-63
2021/07/11 04:53:10;;;;;;;2.87;2.17;;;;;;;16.83;100.00;98217.44;5074478;28;20219;-63
2021/07/11 04:55:36;;;;;;;2.50;2.17;;;;;;;16.89;100.00;98223.03;5074249;28;20569;-63
2021/07/11 04:58:03;;;;;;;2.10;1.90;;;;;;;16.98;100.00;98227.53;5074102;28;20239;-63
2021/07/11 05:00:29;;;;;;;2.37;2.17;;;;;;;17.06;100.00;98224.97;5073162;28;20218;-63
2021/07/11 05:02:56;;;;;;;2.37;2.17;;;;;;;17.11;100.00;98225.38;5074244;28;20214;-65
2021/07/11 05:05:24;;;;;;;2.23;2.07;;;;;;;17.16;100.00;98231.16;5073945;28;20223;-62
2021/07/11 05:07:50;;;;;;;2.30;2.10;;;;;;;17.24;100.00;98233.09;5073823;28;20211;-63
2021/07/11 05:10:17;;;;;;;2.63;2.20;;;;;;;17.32;100.00;98235.88;5072758;28;20234;-62
2021/07/11 05:12:43;;;;;;;2.10;2.00;;;;;;;17.38;100.00;98246.03;5074014;28;20222;-62
2021/07/11 05:15:11;;;;;;;6.87;2.20;;;;;;;17.42;100.00;98245.59;5073801;28;20215;-63
2021/07/11 05:17:38;;;;;;;1.80;1.70;;;;;;;17.44;100.00;98245.44;5073851;28;20235;-61
2021/07/11 05:20:07;;;;;;;2.07;1.87;;;;;;;17.44;100.00;98242.78;5073885;28;20203;-62
2021/07/11 05:22:35;;;;;;;3.37;2.20;;;;;;;17.44;100.00;98240.91;5085848;28;20199;-62
2021/07/11 05:25:02;;;;;;;2.00;1.80;;;;;;;17.44;100.00;98243.59;5094163;28;20218;-62
2021/07/11 05:27:28;;;;;;;2.40;2.20;;;;;;;17.46;100.00;98244.31;5093814;28;20218;-63
2021/07/11 05:29:55;;;;;;;2.13;1.87;;;;;;;17.49;100.00;98240.50;5093982;28;20210;-63
2021/07/11 05:32:21;;;;;;;3.10;2.03;;;;;;;17.51;100.00;98230.50;5093862;28;20210;-62
2021/07/11 05:34:48;;;;;;;2.73;2.40;;;;;;;17.45;100.00;98231.94;5091883;28;20672;-63
2021/07/11 05:37:14;;;;;;;2.50;2.30;;;;;;;17.37;100.00;98234.47;5093209;28;20717;-63
2021/07/11 05:39:42;;;;;;;2.17;1.97;;;;;;;17.34;100.00;98229.41;5093716;28;20238;-63
2021/07/11 05:42:09;;;;;;;2.30;2.10;;;;;;;17.32;100.00;98231.38;5093432;28;20214;-62
2021/07/11 05:44:35;;;;;;;3.67;2.13;;;;;;;17.36;100.00;98240.78;5093777;28;20211;-63
2021/07/11 05:47:02;;;;;;;2.37;2.00;;;;;;;17.33;100.00;98233.06;5093798;28;20207;-63
2021/07/11 05:49:29;;;;;;;2.30;2.10;;;;;;;17.26;100.00;98242.63;5093775;28;20307;-63
2021/07/11 05:51:55;;;;;;;2.20;2.00;;;;;;;17.22;100.00;98238.59;5093661;28;20214;-63
2021/07/11 05:54:21;;;;;;;2.43;2.23;;;;;;;17.25;100.00;98235.59;5093599;28;20211;-63
2021/07/11 05:56:49;;;;;;;3.83;2.13;;;;;;;17.26;100.00;98237.28;5093238;28;20203;-63
2021/07/11 05:59:16;;;;;;;2.10;1.90;;;;;;;17.35;100.00;98239.09;5093382;28;20226;-63
2021/07/11 06:01:42;;;;;;;2.43;2.23;;;;;;;17.62;100.00;98239.16;5092075;28;20218;-63
2021/07/11 06:04:09;;;;;;;2.70;2.30;;;;;;;17.80;100.00;98242.75;5093593;28;20206;-63
2021/07/11 06:06:35;;;;;;;2.17;1.97;;;;;;;17.90;100.00;98245.38;5093369;28;20207;-63
2021/07/11 06:09:02;;;;;;;2.57;2.00;;;;;;;18.01;100.00;98246.03;5093083;28;20215;-63
2021/07/11 06:11:28;;;;;;;3.60;2.13;;;;;;;18.33;100.00;98248.25;5093203;28;20207;-63
2021/07/11 06:13:56;;;;;;;3.83;2.17;;;;;;;19.59;100.00;98252.19;5093341;28;20211;-63
2021/07/11 06:16:22;;;;;;;1.93;1.70;;;;;;;21.47;91.33;98248.56;5093128;28;20217;-63
2021/07/11 06:18:49;;;;;;;3.10;2.10;;;;;;;22.48;83.00;98245.88;5092832;28;20241;-62
2021/07/11 06:21:15;;;;;;;1.70;1.60;;;;;;;23.64;76.44;98245.47;5092115;28;20207;-63
2021/07/11 06:23:42;;;;;;;1.80;1.70;;;;;;;24.81;71.12;98253.25;5073095;28;20222;-63
2021/07/11 06:26:08;;;;;;;3.13;1.67;;;;;;;25.20;66.09;98253.66;5071490;28;20217;-63
2021/07/11 06:28:35;;;;;;;2.80;1.67;;;;;;;24.72;66.97;98257.13;5072719;28;20221;-63
2021/07/11 06:31:03;;;;;;;2.20;2.00;;;;;;;24.67;65.22;98256.88;5072695;28;20229;-64
2021/07/11 06:33:29;;;;;;;2.30;1.80;;;;;;;24.47;66.90;98252.22;5072959;28;20211;-63
2021/07/11 06:35:56;;;;;;;2.67;1.87;;;;;;;24.70;64.94;98256.47;5072621;28;20211;-64
2021/07/11 06:38:22;;;;;;;2.00;1.80;;;;;;;24.48;63.52;98256.59;5072398;28;20239;-63
2021/07/11 06:40:49;;;;;;;3.63;2.10;;;;;;;24.65;64.05;98250.81;5072934;28;20238;-64
2021/07/11 06:43:15;;;;;;;2.77;1.83;;;;;;;24.95;60.93;98244.28;5072939;28;20211;-63
2021/07/11 06:45:42;;;;;;;2.70;1.97;;;;;;;25.30;58.81;98251.47;5072607;28;20211;-63
2021/07/11 06:48:10;;;;;;;2.37;2.17;;;;;;;25.63;54.90;98255.31;5072606;28;20777;-64
2021/07/11 06:50:40;;;;;;;1.90;1.70;;;;;;;25.26;58.07;98252.06;5072826;28;20222;-63
2021/07/11 06:53:07;;;;;;;3.80;2.00;;;;;;;24.82;60.46;98252.22;5071196;28;20207;-63
2021/07/11 06:55:33;;;;;;;2.07;1.83;;;;;;;25.14;59.58;98251.75;5072684;28;20212;-63
2021/07/11 06:57:59;;;;;;;2.23;2.00;;;;;;;25.71;55.80;98252.44;5072749;28;20234;-64
2021/07/11 07:00:26;;;;;;;2.30;1.90;;;;;;;25.42;57.71;98254.50;5072417;28;20214;-64
2021/07/11 07:02:52;;;;;;;2.63;1.97;;;;;;;25.13;57.25;98241.09;5072419;28;20207;-64
2021/07/11 07:05:21;;;;;;;1.93;1.73;;;;;;;25.49;56.80;98242.69;5072354;28;20689;-62
2021/07/11 07:07:47;;;;;;;1.80;1.70;;;;;;;25.57;56.50;98250.66;5072320;28;20246;-63
2021/07/11 07:10:15;;;;;;;2.17;1.87;;;;;;;25.47;56.43;98250.16;5072541;28;20214;-64
2021/07/11 07:12:42;;;;;;;3.87;2.00;;;;;;;25.10;57.77;98253.16;5072521;28;20215;-63
2021/07/11 07:15:10;;;;;;;2.23;1.93;;;;;;;24.17;60.42;98259.56;5072596;28;20609;-63
2021/07/11 07:17:37;;;;;;;3.07;2.00;;;;;;;22.97;63.83;98258.00;5072640;28;20215;-63
2021/07/11 07:20:05;;;;;;;2.73;1.90;;;;;;;22.09;69.13;98261.22;5070457;28;20667;-63
2021/07/11 07:22:33;;;;;;;2.40;2.20;;;;;;;21.77;71.85;98260.47;5084268;28;20665;-63
2021/07/11 07:25:00;;;;;;;2.10;1.90;;;;;;;21.66;73.43;98267.03;5096040;28;20214;-63
2021/07/11 07:27:26;;;;;;;2.70;2.23;;;;;;;21.56;76.14;98269.06;5096277;28;20583;-63
2021/07/11 07:29:53;;;;;;;2.10;1.90;;;;;;;21.29;75.57;98271.28;5096316;28;20207;-63
2021/07/11 07:32:19;;;;;;;1.83;1.73;;;;;;;21.03;74.91;98260.69;5096436;28;20218;-64
2021/07/11 07:34:46;;;;;;;1.70;1.60;;;;;;;21.02;76.00;98264.41;5095952;28;20214;-63
2021/07/11 07:37:12;;;;;;;2.30;2.10;;;;;;;20.87;74.87;98268.75;5096180;28;20227;-63
2021/07/11 07:39:40;;;;;;;2.03;1.90;;;;;;;20.83;74.23;98263.84;5095801;28;20237;-63
2021/07/11 07:42:07;;;;;;;1.90;1.70;;;;;;;20.82;74.24;98268.41;5096040;28;20589;-63
2021/07/11 07:44:33;;;;;;;2.60;2.03;;;;;;;20.84;74.68;98269.06;5094130;28;20207;-63
2021/07/11 07:47:00;;;;;;;2.50;1.80;;;;;;;20.98;74.51;98268.41;5096063;28;20218;-63
2021/07/11 07:49:27;;;;;;;2.60;1.73;;;;;;;21.25;74.92;98269.94;5095807;28;20211;-63
2021/07/11 07:51:53;;;;;;;1.83;1.70;;;;;;;21.44;76.41;98269.56;5096069;28;20207;-63
2021/07/11 07:54:20;;;;;;;2.10;1.90;;;;;;;21.47;75.52;98272.75;5095813;28;20581;-63
2021/07/11 07:56:47;;;;;;;2.37;1.80;;;;;;;21.49;74.90;98273.44;5095557;28;20211;-63
2021/07/11 07:59:14;;;;;;;1.93;1.70;;;;;;;21.53;74.38;98269.38;5095712;28;20247;-63
2021/07/11 08:01:41;;;;;;;3.10;2.10;;;;;;;21.57;74.83;98270.75;5095732;28;20237;-63
2021/07/11 08:04:08;;;;;;;1.97;1.77;;;;;;;21.81;69.42;98277.94;5095694;28;20218;-66
2021/07/11 08:06:35;;;;;;;2.13;1.93;;;;;;;21.60;69.40;98270.41;5095674;28;20203;-64
2021/07/11 08:09:02;;;;;;;2.43;1.73;;;;;;;21.63;71.11;98270.06;5095238;28;20211;-64
2021/07/11 08:11:29;;;;;;;1.90;1.70;;;;;;;21.67;70.06;98276.81;5093792;28;20210;-64
2021/07/11 08:13:56;;;;;;;1.70;1.53;;;;;;;21.67;70.76;98268.75;5095095;28;20669;-64
2021/07/11 08:16:24;;;;;;;2.10;1.90;;;;;;;21.78;72.96;98267.53;5095394;28;20217;-65
2021/07/11 08:18:50;;;;;;;2.70;1.83;;;;;;;21.88;74.32;98269.00;5095126;28;20234;-65
2021/07/11 08:21:17;;;;;;;3.33;1.83;;;;;;;22.00;71.47;98278.38;5093786;28;20693;-64
2021/07/11 08:23:44;;;;;;;1.90;1.80;;;;;;;21.94;67.49;98272.88;5074987;28;20553;-65
2021/07/11 08:26:11;;;;;;;2.43;1.60;;;;;;;21.98;70.95;98274.19;5074920;28;20223;-65
2021/07/11 08:28:37;;;;;;;2.03;1.60;;;;;;;21.90;67.67;98272.38;5074654;28;20215;-65
2021/07/11 08:31:05;;;;;;;2.57;1.97;;;;;;;21.89;68.09;98280.63;5074952;28;20204;-65
2021/07/11 08:33:32;;;;;;;1.63;1.50;;;;;;;21.68;67.05;98280.31;5074909;28;20235;-65
2021/07/11 08:35:59;;;;;;;2.73;1.80;;;;;;;21.61;67.92;98271.22;5074888;28;20211;-65
2021/07/11 08:38:25;;;;;;;2.03;1.83;;;;;;;21.50;72.10;98280.50;5073370;28;20403;-64
2021/07/11 08:40:52;;;;;;;1.80;1.60;;;;;;;21.41;71.12;98286.91;5074791;28;20215;-64
2021/07/11 08:43:19;;;;;;;3.07;1.80;;;;;;;21.31;73.75;98285.38;5074431;28;20215;-65
2021/07/11 08:45:46;;;;;;;1.60;1.50;;;;;;;21.43;69.69;98278.66;5070241;28;20222;-66
2021/07/11 08:48:13;;;;;;;3.47;1.80;;;;;;;21.70;71.08;98284.53;5072974;28;20208;-65
2021/07/11 08:50:40;;;;;;;1.60;1.50;;;;;;;22.04;70.92;98285.13;5074663;28;20560;-66
2021/07/11 08:53:07;;;;;;;1.57;1.43;;;;;;;22.46;68.33;98288.34;5074342;28;20207;-65
2021/07/11 08:55:33;;;;;;;1.90;1.77;;;;;;;22.66;67.61;98292.25;5074513;28;20211;-65
2021/07/11 08:58:01;;;;;;;1.80;1.70;;;;;;;22.51;66.62;98295.88;5073979;28;20211;-65
2021/07/11 09:00:30;;;;;;;3.00;1.70;;;;;;;22.23;64.64;98290.09;5074248;28;20231;-65
2021/07/11 09:02:56;;;;;;;1.60;1.50;;;;;;;22.05;64.53;98292.16;5073603;28;20208;-65
2021/07/11 09:05:27;;;;;;;1.50;1.40;;;;;;;21.96;65.56;98295.91;5073202;28;20207;-65
2021/07/11 09:08:01;;;;;;;1.43;1.30;;;;;;;21.99;64.75;98290.16;5074071;28;20211;-65
2021/07/11 09:10:30;;;;;;;1.63;1.30;;;;;;;22.15;64.75;98298.19;5074151;28;20214;-66
2021/07/11 09:12:57;;;;;;;1.50;1.40;;;;;;;22.44;65.04;98300.28;5073765;28;20215;-65
2021/07/11 09:15:35;;;;;;;1.70;1.60;;;;;;;22.78;61.64;98298.91;5073727;28;20667;-65
2021/07/11 09:18:02;;;;;;;1.50;1.40;;;;;;;22.88;61.38;98302.22;5073670;28;20293;-65
2021/07/11 09:20:30;;;;;;;1.67;1.57;;;;;;;22.86;62.17;98300.72;5073746;28;20239;-65
2021/07/11 09:22:59;;;;;;;3.00;1.60;;;;;;;22.75;65.21;98299.25;5088649;28;20210;-65
2021/07/11 09:25:25;;;;;;;2.00;1.47;;;;;;;22.92;65.50;98302.72;5094071;28;20222;-65
2021/07/11 09:27:52;;;;;;;2.80;1.77;;;;;;;23.15;64.87;98298.97;5093762;28;20210;-65
2021/07/11 09:30:18;;;;;;;1.80;1.40;;;;;;;23.25;63.98;98298.78;5092126;28;20206;-65
2021/07/11 09:32:45;;;;;;;3.00;1.73;;;;;;;23.45;62.92;98300.78;5093784;28;20211;-65
2021/07/11 09:35:14;;;;;;;2.50;1.50;;;;;;;23.60;60.43;98304.34;5093706;28;20214;-65
2021/07/11 09:37:44;;;;;;;1.50;1.40;;;;;;;23.67;60.10;98310.72;5093758;28;20609;-66
2021/07/11 09:40:14;;;;;;;1.70;1.60;;;;;;;23.74;61.00;98311.66;5093744;28;20242;-65
2021/07/11 09:42:44;;;;;;;1.63;1.53;;;;;;;23.73;59.13;98309.13;5093443;28;20745;-65
2021/07/11 09:45:16;;;;;;;1.67;1.53;;;;;;;23.46;56.91;98301.63;5093147;28;20217;-65
2021/07/11 09:47:43;;;;;;;1.40;1.30;;;;;;;23.46;59.03;98299.75;5094147;28;20206;-65
2021/07/11 09:50:13;;;;;;;1.67;1.57;;;;;;;23.34;57.52;98297.69;5093594;28;20217;-65
2021/07/11 09:52:44;;;;;;;1.90;1.40;;;;;;;23.15;57.96;98304.38;5093308;28;20210;-65
2021/07/11 09:55:13;;;;;;;1.80;1.60;;;;;;;23.10;58.20;98301.38;5092273;28;20219;-66
2021/07/11 09:57:42;;;;;;;5.20;1.87;;;;;;;23.14;59.29;98305.41;5093618;28;20203;-65
2021/07/11 10:00:18;;;;;;;1.60;1.50;;;;;;;23.15;57.28;98287.34;5093147;28;20235;-65
2021/07/11 10:02:45;;;;;;;2.10;1.80;;;;;;;23.17;57.79;98290.75;5093160;28;20206;-65
2021/07/11 10:05:13;;;;;;;2.30;1.57;;;;;;;23.18;56.56;98293.28;5093418;28;20207;-65
2021/07/11 10:07:41;;;;;;;1.97;1.87;;;;;;;23.31;58.01;98288.09;5093416;28;20218;-65
2021/07/11 10:10:11;;;;;;;1.70;1.50;;;;;;;23.48;58.06;98292.31;5093174;28;20218;-65
2021/07/11 10:12:38;;;;;;;1.60;1.50;;;;;;;23.78;58.73;98294.03;5093331;28;20580;-65
2021/07/11 10:15:11;;;;;;;1.80;1.67;;;;;;;23.87;55.94;98295.69;5092429;28;20203;-66
2021/07/11 10:17:39;;;;;;;1.90;1.60;;;;;;;23.83;54.75;98298.91;5092367;28;20207;-65
2021/07/11 10:20:07;;;;;;;2.03;1.60;;;;;;;23.63;55.05;98295.91;5092225;28;20234;-65
2021/07/11 10:22:43;;;;;;;3.67;1.67;;;;;;;23.75;59.71;98297.13;5090972;28;20207;-65
2021/07/11 10:25:14;;;;;;;1.30;1.20;;;;;;;24.04;57.66;98302.59;5092839;28;20218;-65
2021/07/11 10:27:41;;;;;;;1.50;1.40;;;;;;;24.24;54.60;98292.88;5092444;28;20217;-65
2021/07/11 10:30:10;;;;;;;1.80;1.70;;;;;;;24.46;54.70;98300.03;5092402;28;20211;-65
2021/07/11 10:32:36;;;;;;;1.87;1.40;;;;;;;24.53;51.97;98303.66;5092307;28;20215;-65
2021/07/11 10:35:12;;;;;;;2.60;1.70;;;;;;;24.25;52.89;98305.34;5092537;28;20593;-65
2021/07/11 10:37:49;;;;;;;1.60;1.50;;;;;;;24.17;54.91;98301.91;5092342;28;20689;-65
2021/07/11 10:40:20;;;;;;;1.83;1.57;;;;;;;24.32;55.56;98300.88;5092101;28;20728;-66
2021/07/11 10:42:47;;;;;;;1.90;1.70;;;;;;;24.66;57.33;98298.44;5092497;28;20207;-66
2021/07/11 10:45:16;;;;;;;2.00;1.80;;;;;;;24.99;56.27;98304.22;5092087;28;20583;-66
2021/07/11 10:47:43;;;;;;;2.43;1.70;;;;;;;25.21;54.22;98297.78;5092042;28;20690;-65
2021/07/11 10:50:22;;;;;;;1.60;1.50;;;;;;;25.46;53.50;98299.91;5090617;28;20217;-65
2021/07/11 10:52:48;;;;;;;1.67;1.57;;;;;;;25.65;52.43;98296.53;5092088;28;20696;-65
2021/07/11 10:55:15;;;;;;;1.90;1.80;;;;;;;25.71;52.67;98298.47;5092393;28;20233;-66
2021/07/11 10:57:43;;;;;;;2.73;1.60;;;;;;;25.52;52.65;98295.59;5093643;28;20210;-66
2021/07/11 11:00:13;;;;;;;1.90;1.70;;;;;;;25.39;52.17;98290.91;5096535;28;20235;-65
2021/07/11 11:02:40;;;;;;;2.03;1.83;;;;;;;25.54;53.51;98294.34;5096279;28;20210;-66
2021/07/11 11:05:11;;;;;;;2.03;1.80;;;;;;;25.55;51.07;98295.22;5095869;28;20669;-65
2021/07/11 11:07:41;;;;;;;2.10;1.60;;;;;;;25.69;53.60;98292.41;5096137;28;20219;-65
2021/07/11 11:10:26;;;;;;;2.20;1.67;;;;;;;25.81;53.79;98295.41;5095920;28;20287;-65
2021/07/11 11:13:21;;;;;;;1.97;1.50;;;;;;;25.90;49.80;98305.09;5095737;28;20215;-66
2021/07/11 11:15:49;;;;;;;1.60;1.40;;;;;;;25.85;48.40;98285.84;5094450;28;20622;-65
2021/07/11 11:18:22;;;;;;;2.57;1.43;;;;;;;25.47;49.61;98282.66;5095865;28;20215;-66
2021/07/11 11:20:53;;;;;;;2.43;1.70;;;;;;;25.30;50.98;98291.25;5095967;28;20226;-66
2021/07/11 11:23:19;;;;;;;1.93;1.30;;;;;;;25.44;52.77;98293.88;5095876;28;20211;-66
2021/07/11 11:25:47;;;;;;;1.50;1.40;;;;;;;25.61;50.64;98289.81;5095626;28;20207;-66
2021/07/11 11:28:26;;;;;;;1.70;1.60;;;;;;;25.71;49.96;98290.34;5095885;28;20572;-66
2021/07/11 11:30:52;;;;;;;1.73;1.47;;;;;;;25.71;49.04;98295.75;5095999;28;20202;-66
2021/07/11 11:33:19;;;;;;;1.90;1.67;;;;;;;25.73;50.33;98282.84;5095704;28;20604;-66